Time;durP1;ratioP1;P1;durP2;ratioP2;P2;SDS_P1;SDS_P2;PMS_P1;PMS_P2;Temp;Humidity;BMP_temperature;BMP_pressure;BME280_temperature;BME280_humidity;BME280_pressure;Samples;Min_cycle;Max_cycle;Signal;HPM_P1;HPM_P2
2023/02/10 10:12:16;;;;;;;40.57;33.57;;;4.70;99.90;;;;;;5066528;27;20627;-75
2023/02/10 10:14:43;;;;;;;34.97;29.20;;;5.80;98.60;;;;;;5065803;28;20806;-77
2023/02/10 10:17:36;;;;;;;31.67;28.27;;;5.90;98.00;;;;;;5066122;28;20447;-76
2023/02/10 10:20:21;;;;;;;34.70;31.00;;;5.90;97.80;;;;;;5065741;28;20455;-76
2023/02/10 10:23:03;;;;;;;33.17;29.80;;;6.00;98.10;;;;;;5065686;28;20452;-76
2023/02/10 10:25:59;;;;;;;38.60;34.20;;;6.30;97.40;;;;;;5065584;28;20525;-77
2023/02/10 10:28:41;;;;;;;35.80;32.00;;;6.60;97.40;;;;;;5065375;28;20918;-76
2023/02/10 10:31:13;;;;;;;34.40;29.87;;;6.60;96.40;;;;;;5065793;28;20897;-75
2023/02/10 10:33:45;;;;;;;38.67;32.83;;;6.60;96.80;;;;;;5065646;28;20451;-75
2023/02/10 10:36:15;;;;;;;36.40;32.47;;;6.90;96.30;;;;;;5065798;28;20474;-75
2023/02/10 10:38:44;;;;;;;37.10;32.10;;;6.80;95.60;;;;;;5065348;28;20984;-75
2023/02/10 10:41:14;;;;;;;36.23;32.43;;;7.10;95.20;;;;;;5065471;28;20444;-76
2023/02/10 10:43:46;;;;;;;37.23;31.23;;;7.30;95.00;;;;;;5065387;28;20463;-76
2023/02/10 10:46:17;;;;;;;35.20;31.53;;;7.50;94.40;;;;;;5065341;28;20457;-76
2023/02/10 10:48:44;;;;;;;37.20;32.50;;;7.50;93.90;;;;;;5065285;28;20817;-77
2023/02/10 10:51:13;;;;;;;35.00;31.20;;;7.80;93.30;;;;;;5065190;28;20993;-75
2023/02/10 10:53:43;;;;;;;39.10;33.40;;;8.30;92.90;;;;;;5065035;28;20976;-76
2023/02/10 10:56:22;;;;;;;36.20;32.30;;;8.30;92.40;;;;;;5065203;28;20510;-75
2023/02/10 10:58:51;;;;;;;36.57;32.37;;;8.30;92.10;;;;;;5065064;28;20451;-76
2023/02/10 11:01:19;;;;;;;40.70;33.57;;;8.50;91.90;;;;;;5064840;28;20444;-75
2023/02/10 11:03:45;;;;;;;39.10;34.93;;;8.60;91.40;;;;;;5065053;28;20477;-76
2023/02/10 11:06:15;;;;;;;38.60;34.63;;;8.60;90.90;;;;;;5064922;28;20468;-76
2023/02/10 11:08:45;;;;;;;36.30;32.30;;;8.40;90.70;;;;;;5064893;28;20459;-77
2023/02/10 11:11:14;;;;;;;38.23;34.20;;;8.40;90.80;;;;;;5061735;28;20491;-77
2023/02/10 11:13:49;;;;;;;38.90;34.17;;;8.20;90.50;;;;;;5051804;28;20460;-76
2023/02/10 11:16:18;;;;;;;36.00;31.40;;;8.20;90.60;;;;;;5051433;28;20456;-77
2023/02/10 11:18:53;;;;;;;36.47;32.50;;;8.60;90.00;;;;;;5051250;28;20449;-77
2023/02/10 11:21:19;;;;;;;35.47;31.87;;;8.80;90.10;;;;;;5051333;28;20444;-75
2023/02/10 11:23:51;;;;;;;41.23;31.67;;;8.90;89.30;;;;;;5051236;28;20924;-75
2023/02/10 11:26:20;;;;;;;36.37;32.20;;;9.20;87.90;;;;;;5051444;28;20459;-75
2023/02/10 11:28:46;;;;;;;39.53;31.50;;;9.10;86.50;;;;;;5051205;28;20506;-74
2023/02/10 11:31:26;;;;;;;35.60;31.83;;;9.50;86.10;;;;;;5051186;28;20491;-75
2023/02/10 11:33:57;;;;;;;38.50;32.80;;;9.80;83.70;;;;;;5051555;28;20860;-76
2023/02/10 11:36:33;;;;;;;35.57;32.00;;;10.10;81.10;;;;;;5051115;28;20967;-75
2023/02/10 11:39:02;;;;;;;35.53;32.17;;;11.00;78.50;;;;;;5050938;28;20452;-76
2023/02/10 11:41:30;;;;;;;36.47;32.67;;;11.30;75.00;;;;;;5050873;28;20444;-76
2023/02/10 11:43:57;;;;;;;35.87;32.33;;;11.50;73.60;;;;;;5050794;28;20505;-76
2023/02/10 11:46:28;;;;;;;32.57;29.57;;;12.40;70.60;;;;;;5051179;28;20535;-75
2023/02/10 11:48:57;;;;;;;33.70;30.60;;;12.40;66.90;;;;;;5051127;28;20484;-76
2023/02/10 11:51:24;;;;;;;35.83;32.50;;;13.10;66.30;;;;;;5050785;28;20998;-76
2023/02/10 11:53:52;;;;;;;36.77;33.23;;;14.40;61.50;;;;;;5050706;28;20948;-75
2023/02/10 11:58:58;;;;;;;35.17;31.77;;;15.40;58.00;;;;;;5050507;28;20456;-75
2023/02/10 11:59:19;;;;;;;34.27;31.17;;;15.40;56.80;;;;;;5050966;28;20445;-75
2023/02/10 12:01:54;;;;;;;35.97;32.57;;;15.40;53.40;;;;;;5050773;28;20458;-75
2023/02/10 12:04:45;;;;;;;35.33;31.93;;;15.00;55.30;;;;;;5051030;28;20449;-76
2023/02/10 12:07:20;;;;;;;37.27;33.80;;;16.40;53.50;;;;;;5053302;28;20848;-75
2023/02/10 12:09:54;;;;;;;36.83;33.60;;;17.40;52.30;;;;;;5051255;28;20451;-75
2023/02/10 12:12:28;;;;;;;34.80;32.03;;;17.80;50.90;;;;;;5050509;28;20795;-76
2023/02/10 12:15:04;;;;;;;37.20;34.20;;;18.90;47.20;;;;;;5050855;28;20807;-76
2023/02/10 12:17:39;;;;;;;38.97;35.10;;;20.10;46.10;;;;;;5050603;28;20692;-77
2023/02/10 12:20:18;;;;;;;33.87;30.80;;;20.70;43.80;;;;;;5050562;28;20452;-76
2023/02/10 12:23:01;;;;;;;34.83;31.50;;;20.50;42.90;;;;;;5049731;28;20459;-77
2023/02/10 12:25:35;;;;;;;34.67;31.63;;;19.70;41.90;;;;;;5050045;28;20501;-76
2023/02/10 12:28:06;;;;;;;34.67;31.60;;;19.90;42.20;;;;;;5050264;28;20569;-76
2023/02/10 12:30:45;;;;;;;34.60;31.50;;;19.10;41.70;;;;;;5049882;28;20462;-76
2023/02/10 12:33:33;;;;;;;34.30;31.10;;;19.50;42.40;;;;;;5050089;28;20964;-75
2023/02/10 12:36:08;;;;;;;35.70;32.70;;;19.60;41.00;;;;;;5050119;28;20532;-76
2023/02/10 12:38:51;;;;;;;35.60;32.83;;;19.00;41.30;;;;;;5050131;28;20462;-76
2023/02/10 12:41:24;;;;;;;36.93;33.67;;;18.20;41.80;;;;;;5050027;28;20983;-75
2023/02/10 12:44:03;;;;;;;35.07;32.00;;;17.40;42.40;;;;;;5050027;28;20460;-75
2023/02/10 12:46:37;;;;;;;35.23;32.00;;;16.60;43.50;;;;;;5050032;28;20764;-75
2023/02/10 12:49:19;;;;;;;35.27;31.90;;;16.70;43.90;;;;;;5050038;28;20484;-76
2023/02/10 12:52:10;;;;;;;35.73;32.10;;;15.90;44.60;;;;;;5050057;28;20782;-76
2023/02/10 12:54:44;;;;;;;33.57;30.30;;;15.90;46.00;;;;;;5050155;28;20448;-76
2023/02/10 12:57:19;;;;;;;33.37;30.57;;;16.40;43.90;;;;;;5049937;28;20453;-76
2023/02/10 12:59:52;;;;;;;32.90;29.90;;;16.40;44.00;;;;;;5049829;28;20547;-77
2023/02/10 13:02:23;;;;;;;32.03;29.17;;;16.40;44.20;;;;;;5049659;28;20502;-76
2023/02/10 13:04:57;;;;;;;32.80;29.50;;;17.20;43.90;;;;;;5049743;28;20452;-76
2023/02/10 13:07:33;;;;;;;33.27;30.37;;;17.40;43.00;;;;;;5050048;28;20476;-77
2023/02/10 13:10:10;;;;;;;33.00;30.13;;;16.70;43.70;;;;;;5049402;28;20448;-77
2023/02/10 13:12:40;;;;;;;32.77;29.80;;;16.00;44.50;;;;;;5049681;28;20855;-75
2023/02/10 13:15:15;;;;;;;32.77;29.87;;;15.70;45.00;;;;;;5049630;28;20460;-75
2023/02/10 13:17:45;;;;;;;33.47;30.57;;;15.60;44.60;;;;;;5049735;28;20505;-76
2023/02/10 13:20:27;;;;;;;33.80;30.70;;;15.50;44.70;;;;;;5049324;28;20448;-74
2023/02/10 13:23:02;;;;;;;32.10;28.90;;;14.70;44.80;;;;;;5049514;28;20452;-74
2023/02/10 13:25:37;;;;;;;31.20;28.27;;;14.30;45.50;;;;;;5049237;28;20447;-74
2023/02/10 13:28:18;;;;;;;31.47;28.60;;;13.10;45.90;;;;;;5048951;28;20455;-75
2023/02/10 13:31:10;;;;;;;31.17;28.17;;;11.70;47.70;;;;;;5049053;28;20712;-74
2023/02/10 13:33:48;;;;;;;29.07;26.37;;;10.90;49.80;;;;;;5049084;28;20444;-74
2023/02/10 13:36:20;;;;;;;30.00;27.03;;;9.80;52.90;;;;;;5048715;28;20883;-75
2023/02/10 13:38:48;;;;;;;28.87;26.27;;;9.50;54.10;;;;;;5048931;28;20449;-75
2023/02/10 13:41:45;;;;;;;31.13;27.90;;;9.20;55.10;;;;;;5048884;28;20914;-74
2023/02/10 13:44:24;;;;;;;30.30;27.27;;;8.70;56.50;;;;;;5049085;28;20499;-74
2023/02/10 13:46:55;;;;;;;28.97;26.30;;;8.40;57.50;;;;;;5048803;28;20448;-75
2023/02/10 13:49:23;;;;;;;28.20;25.30;;;8.30;58.60;;;;;;5048953;28;20448;-74
2023/02/10 13:51:59;;;;;;;25.70;23.30;;;8.30;58.90;;;;;;5048736;28;20459;-75
2023/02/10 13:54:27;;;;;;;28.53;25.53;;;8.10;59.50;;;;;;5048991;28;20459;-75
2023/02/10 13:56:56;;;;;;;29.47;26.43;;;8.20;60.10;;;;;;5048983;28;20870;-75
2023/02/10 13:59:35;;;;;;;30.60;25.17;;;7.90;60.80;;;;;;5049141;28;20452;-75
2023/02/10 14:02:20;;;;;;;26.17;23.60;;;7.90;61.70;;;;;;5048701;28;20480;-75
2023/02/10 14:04:49;;;;;;;25.87;23.50;;;7.90;61.70;;;;;;5048759;28;20456;-74
2023/02/10 14:07:34;;;;;;;26.50;23.73;;;7.90;61.00;;;;;;5048642;28;21100;-74
2023/02/10 14:10:42;;;;;;;26.83;24.33;;;7.70;60.30;;;;;;5049459;28;20456;-74
2023/02/10 14:13:25;;;;;;;26.33;23.83;;;7.70;61.60;;;;;;5049002;28;20448;-75
2023/02/10 14:15:57;;;;;;;26.73;24.23;;;7.70;62.30;;;;;;5048906;28;20856;-75
2023/02/10 14:18:26;;;;;;;29.60;23.83;;;7.70;62.90;;;;;;5048871;28;20452;-74
2023/02/10 14:20:58;;;;;;;26.20;23.87;;;7.70;63.90;;;;;;5048727;28;20542;-75
2023/02/10 14:23:26;;;;;;;29.90;25.17;;;7.50;64.90;;;;;;5048935;28;20943;-76
2023/02/10 14:25:57;;;;;;;28.17;25.30;;;7.60;65.70;;;;;;5048846;28;20455;-75
2023/02/10 14:28:29;;;;;;;27.47;24.57;;;7.70;65.60;;;;;;5049770;28;20453;-75
2023/02/10 14:30:58;;;;;;;26.63;23.93;;;7.70;65.60;;;;;;5048597;28;20445;-75
2023/02/10 14:33:31;;;;;;;26.20;23.50;;;7.60;65.90;;;;;;5048581;28;20453;-74
2023/02/10 14:35:59;;;;;;;29.27;23.83;;;7.70;66.60;;;;;;5048584;28;20452;-74
2023/02/10 14:38:29;;;;;;;24.53;22.13;;;7.60;66.70;;;;;;5048382;28;20475;-74
2023/02/10 14:40:58;;;;;;;26.83;24.13;;;7.50;67.30;;;;;;5048600;28;20547;-74
2023/02/10 14:43:28;;;;;;;28.10;25.40;;;7.50;68.40;;;;;;5048945;28;20460;-75
2023/02/10 14:45:57;;;;;;;28.80;26.00;;;7.50;68.60;;;;;;5048909;28;20448;-76
2023/02/10 14:48:25;;;;;;;25.60;23.13;;;7.40;68.80;;;;;;5052565;28;20452;-74
2023/02/10 14:51:06;;;;;;;25.87;23.17;;;7.20;68.70;;;;;;5052817;28;20570;-76
2023/02/10 14:53:39;;;;;;;27.43;24.23;;;7.30;69.80;;;;;;5052403;28;20451;-75
2023/02/10 14:56:06;;;;;;;27.97;25.20;;;7.20;70.50;;;;;;5052633;28;20467;-74
2023/02/10 14:58:33;;;;;;;28.43;25.43;;;7.20;70.60;;;;;;5052370;28;20460;-75
2023/02/10 15:01:06;;;;;;;29.23;23.33;;;7.20;70.20;;;;;;5052073;28;20455;-75
2023/02/10 15:03:34;;;;;;;28.03;23.27;;;7.20;70.70;;;;;;5052141;28;20448;-75
2023/02/10 15:06:00;;;;;;;27.13;24.30;;;7.20;70.80;;;;;;5052056;28;20955;-75
2023/02/10 15:08:38;;;;;;;31.03;24.97;;;7.20;70.70;;;;;;5052274;28;20445;-75
2023/02/10 15:11:09;;;;;;;30.47;27.27;;;7.10;71.20;;;;;;5051840;28;20479;-75
2023/02/10 15:13:43;;;;;;;27.70;25.00;;;7.10;71.50;;;;;;5052348;28;20737;-74
2023/02/10 15:16:13;;;;;;;27.90;25.00;;;7.10;71.00;;;;;;5052310;28;20818;-75
2023/02/10 15:18:46;;;;;;;31.10;25.00;;;7.10;71.10;;;;;;5052165;28;20451;-75
2023/02/10 15:21:29;;;;;;;26.50;23.67;;;7.00;70.60;;;;;;5051810;28;20492;-75
2023/02/10 15:23:57;;;;;;;29.00;24.60;;;7.00;70.80;;;;;;5052146;28;20453;-74
2023/02/10 15:26:27;;;;;;;25.80;23.10;;;6.90;71.40;;;;;;5052069;28;20959;-75
2023/02/10 15:29:09;;;;;;;25.47;22.83;;;6.90;70.60;;;;;;5052105;28;20456;-74
2023/02/10 15:31:39;;;;;;;25.77;23.30;;;6.90;69.70;;;;;;5051996;28;20448;-75
2023/02/10 15:34:18;;;;;;;24.93;22.33;;;6.80;69.50;;;;;;5051777;28;20448;-75
2023/02/10 15:36:49;;;;;;;27.30;24.33;;;6.80;69.50;;;;;;5051517;28;20515;-74
2023/02/10 15:39:22;;;;;;;25.83;23.13;;;6.60;70.00;;;;;;5051509;28;20960;-75
2023/02/10 15:42:01;;;;;;;26.33;23.73;;;6.60;70.70;;;;;;5051503;28;21006;-75
2023/02/10 15:44:32;;;;;;;25.50;22.23;;;6.60;70.70;;;;;;5051607;28;20460;-75
2023/02/10 15:47:19;;;;;;;26.63;23.90;;;6.50;71.70;;;;;;5051444;28;20559;-75
2023/02/10 15:49:47;;;;;;;25.20;22.87;;;6.40;72.40;;;;;;5051653;28;20453;-75
2023/02/10 15:52:20;;;;;;;26.37;23.57;;;6.40;72.80;;;;;;5051362;28;20507;-75
2023/02/10 15:54:49;;;;;;;27.13;24.33;;;6.30;73.70;;;;;;5051336;28;20452;-75
2023/02/10 15:57:16;;;;;;;26.90;24.10;;;6.20;74.00;;;;;;5051302;28;20460;-75
2023/02/10 15:59:44;;;;;;;35.70;26.20;;;6.10;75.00;;;;;;5051269;28;20825;-74
2023/02/10 16:02:13;;;;;;;29.87;25.00;;;6.00;75.60;;;;;;5051918;28;20480;-74
2023/02/10 16:04:41;;;;;;;29.77;26.67;;;5.80;76.80;;;;;;5051583;28;20452;-74
2023/02/10 16:07:14;;;;;;;30.90;26.13;;;5.60;78.20;;;;;;5051458;28;20508;-75
2023/02/10 16:09:40;;;;;;;28.63;25.40;;;5.60;81.90;;;;;;5051144;28;20456;-75
2023/02/10 16:12:08;;;;;;;28.77;24.60;;;5.50;83.90;;;;;;5051624;28;20448;-75
2023/02/10 16:14:35;;;;;;;30.07;26.20;;;5.40;85.00;;;;;;5050978;28;20552;-75
2023/02/10 16:17:02;;;;;;;34.70;30.27;;;5.20;85.70;;;;;;5050827;28;20599;-75
2023/02/10 16:19:30;;;;;;;33.97;29.37;;;5.00;87.50;;;;;;5050809;28;20455;-75
2023/02/10 16:21:57;;;;;;;33.87;27.70;;;4.80;90.10;;;;;;5050593;28;20516;-74
2023/02/10 16:24:27;;;;;;;34.17;30.00;;;4.70;91.00;;;;;;5051080;28;20449;-74
2023/02/10 16:26:54;;;;;;;35.17;28.10;;;4.60;92.90;;;;;;5051122;28;20494;-74
2023/02/10 16:29:24;;;;;;;33.47;28.97;;;4.40;94.30;;;;;;5050949;28;20455;-74
2023/02/10 16:31:52;;;;;;;34.77;29.50;;;4.30;95.30;;;;;;5050848;28;20448;-75
2023/02/10 16:34:19;;;;;;;38.43;33.13;;;4.20;96.20;;;;;;5050640;28;20817;-74
2023/02/10 16:36:45;;;;;;;35.10;27.40;;;4.20;96.70;;;;;;5050241;28;20456;-74
2023/02/10 16:39:14;;;;;;;30.07;26.80;;;4.10;97.10;;;;;;5050516;28;20794;-74
2023/02/10 16:41:41;;;;;;;35.17;28.10;;;4.00;97.50;;;;;;5050526;28;20479;-74
2023/02/10 16:44:08;;;;;;;34.40;29.80;;;3.90;98.00;;;;;;5050682;28;20456;-74
2023/02/10 16:46:36;;;;;;;28.17;25.17;;;3.90;98.60;;;;;;5050485;28;20452;-73
2023/02/10 16:49:03;;;;;;;32.60;27.63;;;3.80;98.80;;;;;;5050407;28;20572;-74
2023/02/10 16:51:30;;;;;;;34.63;25.60;;;3.70;99.40;;;;;;5050147;28;20765;-74
2023/02/10 16:53:56;;;;;;;35.30;29.70;;;3.60;99.90;;;;;;5050397;28;20444;-74
2023/02/10 16:56:24;;;;;;;27.80;24.87;;;3.40;99.90;;;;;;5050398;28;20850;-74
2023/02/10 16:58:51;;;;;;;32.50;27.60;;;3.30;99.90;;;;;;5050273;28;20821;-75
2023/02/10 17:01:18;;;;;;;33.07;26.93;;;3.30;99.90;;;;;;5050117;28;20948;-75
2023/02/10 17:03:46;;;;;;;29.00;25.73;;;3.20;99.90;;;;;;5049885;28;20480;-75
2023/02/10 17:06:18;;;;;;;32.20;27.93;;;3.00;99.90;;;;;;5049713;28;20512;-75
2023/02/10 17:08:45;;;;;;;30.67;25.37;;;2.90;99.90;;;;;;5049762;28;20448;-74
2023/02/10 17:11:12;;;;;;;34.20;28.87;;;2.80;99.90;;;;;;5049197;28;20477;-74
2023/02/10 17:13:38;;;;;;;32.67;25.97;;;2.80;99.90;;;;;;5050023;28;20448;-74
2023/02/10 17:16:06;;;;;;;36.87;25.57;;;2.80;99.90;;;;;;5050007;28;20448;-75
2023/02/10 17:18:32;;;;;;;32.03;26.40;;;2.80;99.90;;;;;;5049772;28;20459;-74
2023/02/10 17:21:00;;;;;;;34.03;27.33;;;2.70;99.90;;;;;;5049792;28;20453;-75
2023/02/10 17:23:27;;;;;;;34.90;26.53;;;2.60;99.90;;;;;;5049359;28;20491;-75
2023/02/10 17:25:54;;;;;;;34.13;27.97;;;2.50;99.90;;;;;;5049857;28;20486;-76
2023/02/10 17:28:20;;;;;;;29.47;25.87;;;2.50;99.90;;;;;;5050220;28;20811;-75
2023/02/10 17:30:47;;;;;;;32.73;28.97;;;2.30;99.90;;;;;;5049622;28;20889;-75
2023/02/10 17:33:25;;;;;;;34.60;27.70;;;2.20;99.90;;;;;;5049490;28;20452;-75
2023/02/10 17:35:51;;;;;;;28.37;25.37;;;2.20;99.90;;;;;;5049765;28;20444;-75
2023/02/10 17:40:55;;;;;;;44.37;30.47;;;2.10;99.90;;;;;;5049901;28;20457;-76
2023/02/10 17:43:22;;;;;;;35.53;27.53;;;2.10;99.90;;;;;;5049461;28;20473;-76
2023/02/10 17:45:49;;;;;;;38.13;28.33;;;2.10;99.90;;;;;;5049439;28;20457;-74
2023/02/10 17:48:16;;;;;;;34.83;30.50;;;2.10;99.90;;;;;;5049295;28;20514;-76
2023/02/10 17:50:43;;;;;;;36.60;30.13;;;2.10;99.90;;;;;;5049269;28;20946;-75
2023/02/10 17:53:09;;;;;;;37.37;27.67;;;2.10;99.90;;;;;;5049478;28;20931;-75
2023/02/10 17:55:40;;;;;;;30.63;26.47;;;2.10;99.90;;;;;;5049458;28;20860;-75
2023/02/10 17:58:07;;;;;;;34.67;28.00;;;2.10;99.90;;;;;;5049716;28;20492;-75
